Overview Statistics Trail Chart Weather Telemetry Raw packets
 

This is the latest recevied weather packets stored in our database for station/object KA1JKB. If no packets are shown the sender has not sent any weather packets the latest 10 day(s).

<< 35 36 37 38 39 40 41 >>
Time Temp. Humidity Pressure Rain* Wind** Luminosity Snow
1788195018 27.78° C 75% 1014.9 hPa 0 mm - 209 W/m² -
1788194713 28.89° C 72% 1015.1 hPa 0 mm - 334 W/m² -
1788194409 27.78° C 75% 1015.3 hPa 0 mm - 863 W/m² -
1788194109 26.67° C 79% 1015.5 hPa 0 mm - 518 W/m² -
1788193803 26.67° C 78% 1015.7 hPa 0 mm - 219 W/m² -
1788193498 27.22° C 78% 1015.8 hPa 0 mm - 288 W/m² -
1788193195 27.22° C 77% 1015.8 hPa 0 mm - 389 W/m² -
1788192892 27.78° C 78% 1015.7 hPa 0 mm - 592 W/m² -
1788192588 27.78° C 76% 1015.8 hPa 0 mm - 661 W/m² -
1788192288 27.78° C 80% 1015.9 hPa 0 mm - 973 W/m² -
1788191988 27.22° C 78% 1015.9 hPa 0 mm - 763 W/m² -
1788191683 26.11° C 85% 1015.9 hPa 0 mm - 953 W/m² -
1788191378 25.56° C 83% 1015.8 hPa 0 mm - 310 W/m² -
1788191074 25.56° C 84% 1015.8 hPa 0 mm - 361 W/m² -
1788190773 25.56° C 86% 1015.6 hPa 0 mm - 323 W/m² -
1788190469 25° C 87% 1015.6 hPa 0 mm - 227 W/m² -
1788190165 25° C 86% 1015.6 hPa 0 mm - 227 W/m² -
1788189860 24.44° C 88% 1015.6 hPa 0 mm - 331 W/m² -
1788189556 24.44° C 89% 1015.6 hPa 0 mm - 222 W/m² -
1788189254 23.89° C 90% 1015.4 hPa 0 mm - 163 W/m² -
1788188949 23.89° C 89% 1015.5 hPa 0 mm - 101 W/m² -
1788188645 24.44° C 88% 1015.4 hPa 0 mm - 85 W/m² -
1788188344 24.44° C 88% 1015.4 hPa 0 mm - 90 W/m² -
1788188041 24.44° C 89% 1015.6 hPa 0 mm - 127 W/m² -
1788187736 25° C 89% 1015.6 hPa 0 mm - 180 W/m² -

* Rain latest hour (hover to see other rain measurements)
** Current wind speed in m/s (hover to see current wind gust speed)